Time;durP1;ratioP1;P1;durP2;ratioP2;P2;SDS_P1;SDS_P2;PMS_P1;PMS_P2;Temp;Humidity;BMP_temperature;BMP_pressure;BME280_temperature;BME280_humidity;BME280_pressure;Samples;Min_cycle;Max_cycle;Signal;HPM_P1;HPM_P2
2023/09/27 00:04:51;;;;;;;20.35;9.77;;;;;;;;;;4861751;29;20031;-78
2023/09/27 00:07:26;;;;;;;24.80;10.15;;;;;;;;;;4862219;29;20042;-79
2023/09/27 00:10:22;;;;;;;21.17;10.63;;;;;;;;;;4826428;29;20059;-77
2023/09/27 00:12:52;;;;;;;17.80;10.07;;;;;;;;;;4848983;29;20056;-76
2023/09/27 00:15:47;;;;;;;18.95;9.70;;;;;;;;;;4863825;29;20057;-77
2023/09/27 00:18:20;;;;;;;20.30;9.90;;;;;;;;;;4843331;29;20053;-78
2023/09/27 00:20:57;;;;;;;16.05;9.40;;;;;;;;;;4843626;29;20065;-77
2023/09/27 00:23:31;;;;;;;20.05;10.57;;;;;;;;;;4843475;29;20050;-75
2023/09/27 00:26:01;;;;;;;16.13;10.07;;;;;;;;;;4843180;29;20442;-76
2023/09/27 00:28:33;;;;;;;20.27;10.13;;;;;;;;;;4843138;29;20061;-79
2023/09/27 00:31:04;;;;;;;19.08;10.25;;;;;;;;;;4843381;29;20420;-79
2023/09/27 00:33:35;;;;;;;19.73;9.10;;;;;;;;;;4825185;29;20057;-76
2023/09/27 00:36:05;;;;;;;20.83;10.10;;;;;;;;;;4843278;29;20058;-77
2023/09/27 00:38:36;;;;;;;19.25;9.85;;;;;;;;;;4826120;29;20386;-79
2023/09/27 00:41:06;;;;;;;16.63;9.82;;;;;;;;;;4843178;29;20056;-79
2023/09/27 00:43:37;;;;;;;16.40;9.80;;;;;;;;;;4843028;29;20060;-77
2023/09/27 00:46:10;;;;;;;22.15;10.32;;;;;;;;;;4842909;29;20042;-76
2023/09/27 00:52:07;;;;;;;31.75;12.50;;;;;;;;;;4844405;29;20058;-80
2023/09/27 00:54:38;;;;;;;25.00;12.27;;;;;;;;;;4856479;29;20058;-78
2023/09/27 00:57:08;;;;;;;26.80;13.00;;;;;;;;;;4826203;29;20085;-80
2023/09/27 00:59:40;;;;;;;23.80;12.98;;;;;;;;;;4856334;29;20046;-78
2023/09/27 01:02:12;;;;;;;28.27;12.40;;;;;;;;;;4825783;29;20421;-78
2023/09/27 01:04:43;;;;;;;21.25;12.60;;;;;;;;;;4825707;29;20046;-78
2023/09/27 01:07:18;;;;;;;23.85;12.98;;;;;;;;;;4857261;29;20065;-78
2023/09/27 01:09:52;;;;;;;;;;;;;;;;;;4840589;29;20046;-76
2023/09/27 01:12:23;;;;;;;24.52;13.20;;;;;;;;;;4842371;29;19932;-78
2023/09/27 01:14:53;;;;;;;24.55;12.60;;;;;;;;;;4840115;29;20042;-80
2023/09/27 01:17:26;;;;;;;23.63;12.40;;;;;;;;;;4863147;29;20505;-80
2023/09/27 01:19:59;;;;;;;22.88;12.43;;;;;;;;;;4844630;29;20041;-78
2023/09/27 01:22:30;;;;;;;26.92;13.05;;;;;;;;;;4856229;29;20052;-78
2023/09/27 01:25:03;;;;;;;25.80;13.20;;;;;;;;;;4860242;29;20058;-80
2023/09/27 01:27:37;;;;;;;30.77;13.57;;;;;;;;;;4856769;29;20046;-79
2023/09/27 01:30:13;;;;;;;26.15;12.15;;;;;;;;;;4867849;29;20057;-79
2023/09/27 01:32:43;;;;;;;25.60;12.80;;;;;;;;;;4860179;29;20049;-77
2023/09/27 01:35:17;;;;;;;22.67;12.43;;;;;;;;;;4839085;29;20058;-78
2023/09/27 01:37:49;;;;;;;27.00;13.07;;;;;;;;;;4829248;29;20419;-77
2023/09/27 01:40:26;;;;;;;29.40;13.38;;;;;;;;;;4841294;29;20045;-76
2023/09/27 01:43:02;;;;;;;23.80;13.10;;;;;;;;;;4841544;29;20532;-77
2023/09/27 01:45:36;;;;;;;24.92;13.63;;;;;;;;;;4839158;29;20049;-78
2023/09/27 01:48:12;;;;;;;25.75;13.07;;;;;;;;;;4841628;29;20391;-77
2023/09/27 01:50:44;;;;;;;25.45;13.30;;;;;;;;;;4840989;29;20529;-77
2023/09/27 01:53:15;;;;;;;22.77;12.70;;;;;;;;;;4841809;29;20041;-76
2023/09/27 01:55:47;;;;;;;26.98;13.23;;;;;;;;;;4841461;29;20053;-77
2023/09/27 01:58:18;;;;;;;25.45;13.50;;;;;;;;;;4852458;29;20081;-77
2023/09/27 02:00:52;;;;;;;25.20;14.73;;;;;;;;;;4854619;29;20465;-77
2023/09/27 02:03:22;;;;;;;26.38;15.50;;;;;;;;;;4841222;29;20387;-77
2023/09/27 02:05:52;;;;;;;27.73;13.63;;;;;;;;;;4824578;29;20065;-77
2023/09/27 02:08:25;;;;;;;31.38;13.93;;;;;;;;;;4852018;29;20046;-79
2023/09/27 02:10:58;;;;;;;24.83;12.65;;;;;;;;;;4838917;29;20049;-79
2023/09/27 02:13:30;;;;;;;30.67;14.18;;;;;;;;;;4841173;29;20080;-78
2023/09/27 02:16:02;;;;;;;28.73;14.68;;;;;;;;;;4839707;29;20045;-80
2023/09/27 02:18:33;;;;;;;26.90;14.02;;;;;;;;;;4825354;29;20042;-77
2023/09/27 02:21:04;;;;;;;28.33;15.07;;;;;;;;;;4841395;29;20367;-79
2023/09/27 02:23:36;;;;;;;29.42;13.23;;;;;;;;;;4840971;29;20065;-79
2023/09/27 02:26:09;;;;;;;30.10;14.32;;;;;;;;;;4824431;29;20551;-78
2023/09/27 02:28:43;;;;;;;27.48;15.75;;;;;;;;;;4840975;29;20045;-78
2023/09/27 02:31:14;;;;;;;29.15;14.77;;;;;;;;;;4841032;29;20500;-79
2023/09/27 02:33:45;;;;;;;34.50;15.10;;;;;;;;;;4840838;29;20050;-78
2023/09/27 02:36:18;;;;;;;27.00;14.50;;;;;;;;;;4839122;29;20077;-77
2023/09/27 02:38:51;;;;;;;29.83;14.45;;;;;;;;;;4841207;29;20053;-79
2023/09/27 02:41:22;;;;;;;31.00;15.00;;;;;;;;;;4841666;29;20046;-78
2023/09/27 02:43:56;;;;;;;27.10;14.80;;;;;;;;;;4841501;29;20047;-78
2023/09/27 02:46:28;;;;;;;29.90;14.65;;;;;;;;;;4841466;29;20061;-78
2023/09/27 02:49:01;;;;;;;26.67;14.88;;;;;;;;;;4824522;29;20058;-78
2023/09/27 02:51:33;;;;;;;29.73;15.75;;;;;;;;;;4855292;29;20061;-78
2023/09/27 02:54:04;;;;;;;25.90;15.02;;;;;;;;;;4825320;29;20057;-78
2023/09/27 02:56:36;;;;;;;27.38;14.43;;;;;;;;;;4842155;29;20046;-79
2023/09/27 02:59:12;;;;;;;27.25;15.40;;;;;;;;;;4845721;29;20049;-79
2023/09/27 03:01:44;;;;;;;34.88;17.00;;;;;;;;;;4859566;29;20379;-78
2023/09/27 03:04:16;;;;;;;29.15;14.93;;;;;;;;;;4846349;29;20050;-79
2023/09/27 03:06:48;;;;;;;26.88;15.55;;;;;;;;;;4845973;29;20046;-79
2023/09/27 03:09:20;;;;;;;27.25;15.02;;;;;;;;;;4829158;29;20050;-78
2023/09/27 03:11:54;;;;;;;;;;;;;;;;;;4846587;29;20050;-78
2023/09/27 03:14:24;;;;;;;26.70;15.00;;;;;;;;;;4828619;29;19924;-78
2023/09/27 03:16:56;;;;;;;33.35;15.52;;;;;;;;;;4846171;29;20052;-79
2023/09/27 03:19:28;;;;;;;29.75;15.40;;;;;;;;;;4845771;29;20498;-78
2023/09/27 03:22:01;;;;;;;28.25;16.30;;;;;;;;;;4859212;29;20423;-78
2023/09/27 03:24:34;;;;;;;27.88;15.45;;;;;;;;;;4829123;29;20054;-78
2023/09/27 03:27:07;;;;;;;30.45;14.80;;;;;;;;;;4828724;29;20076;-77
2023/09/27 03:29:39;;;;;;;29.73;16.88;;;;;;;;;;4845609;29;20367;-79
2023/09/27 03:32:13;;;;;;;27.92;14.85;;;;;;;;;;4845397;29;20402;-78
2023/09/27 03:34:46;;;;;;;26.80;16.15;;;;;;;;;;4827914;29;20180;-78
2023/09/27 03:37:20;;;;;;;28.60;14.23;;;;;;;;;;4828463;29;20062;-78
2023/09/27 03:39:55;;;;;;;27.17;14.90;;;;;;;;;;4828214;29;20158;-80
2023/09/27 03:42:26;;;;;;;28.33;14.20;;;;;;;;;;4828000;29;20433;-79
2023/09/27 03:44:56;;;;;;;24.85;14.23;;;;;;;;;;4828364;29;20502;-80
2023/09/27 03:47:29;;;;;;;26.38;14.38;;;;;;;;;;4828396;29;20109;-78
2023/09/27 03:50:01;;;;;;;26.92;14.27;;;;;;;;;;4845672;29;20062;-78
2023/09/27 03:52:32;;;;;;;26.40;13.60;;;;;;;;;;4828562;29;20054;-78
2023/09/27 03:55:04;;;;;;;23.70;13.55;;;;;;;;;;4828331;29;20054;-78
2023/09/27 03:57:34;;;;;;;30.00;14.40;;;;;;;;;;4828473;29;20057;-78
2023/09/27 04:00:17;;;;;;;21.55;11.55;;;;;;;;;;4844973;29;20490;-78
2023/09/27 04:02:50;;;;;;;20.42;11.27;;;;;;;;;;4827907;29;20057;-79
2023/09/27 04:05:23;;;;;;;24.77;12.68;;;;;;;;;;4845243;29;20056;-78
2023/09/27 04:07:54;;;;;;;22.60;12.13;;;;;;;;;;4841064;29;20041;-77
2023/09/27 04:10:25;;;;;;;20.77;10.80;;;;;;;;;;4868339;29;20026;-77
2023/09/27 04:12:57;;;;;;;21.10;10.55;;;;;;;;;;4868165;29;20053;-77
2023/09/27 04:15:29;;;;;;;22.70;11.27;;;;;;;;;;4867585;29;20065;-77
2023/09/27 04:17:59;;;;;;;25.70;11.55;;;;;;;;;;4866770;29;20032;-77
2023/09/27 04:20:34;;;;;;;21.35;11.93;;;;;;;;;;4868045;29;20038;-78
2023/09/27 04:23:06;;;;;;;18.65;9.73;;;;;;;;;;4868452;29;20058;-79
2023/09/27 04:25:37;;;;;;;17.77;9.98;;;;;;;;;;4867979;29;20026;-78
2023/09/27 04:28:11;;;;;;;23.50;10.95;;;;;;;;;;4868222;29;20030;-80
2023/09/27 04:30:41;;;;;;;18.35;10.40;;;;;;;;;;4861131;29;20060;-77
2023/09/27 04:33:11;;;;;;;21.13;10.50;;;;;;;;;;4844736;29;20069;-78
2023/09/27 04:35:44;;;;;;;18.60;10.00;;;;;;;;;;4844946;29;20393;-77
2023/09/27 04:38:16;;;;;;;21.15;10.30;;;;;;;;;;4826965;29;20065;-78
2023/09/27 04:40:49;;;;;;;17.27;8.73;;;;;;;;;;4844239;29;20489;-78
2023/09/27 04:43:21;;;;;;;14.15;7.53;;;;;;;;;;4844273;29;20050;-79
2023/09/27 04:45:53;;;;;;;8.73;4.13;;;;;;;;;;4844348;29;20050;-77
2023/09/27 04:48:24;;;;;;;13.55;6.22;;;;;;;;;;4843965;29;20053;-78
2023/09/27 04:50:59;;;;;;;15.90;6.10;;;;;;;;;;4844272;29;20421;-80
2023/09/27 04:53:34;;;;;;;14.70;6.22;;;;;;;;;;4844021;29;20061;-79
2023/09/27 04:56:11;;;;;;;12.05;5.50;;;;;;;;;;4844260;29;20041;-79
2023/09/27 04:58:43;;;;;;;10.43;5.20;;;;;;;;;;4844267;29;20390;-81
2023/09/27 05:01:15;;;;;;;15.40;5.65;;;;;;;;;;4844059;29;20069;-78
2023/09/27 05:03:48;;;;;;;11.40;3.50;;;;;;;;;;4843954;29;20046;-81
2023/09/27 05:06:20;;;;;;;10.05;4.35;;;;;;;;;;4842935;29;20053;-78
2023/09/27 05:08:50;;;;;;;9.27;4.38;;;;;;;;;;4843791;29;20069;-79
2023/09/27 05:11:24;;;;;;;10.23;4.60;;;;;;;;;;4843943;29;20520;-78
2023/09/27 05:13:58;;;;;;;10.32;3.97;;;;;;;;;;4843432;29;20050;-78
2023/09/27 05:16:41;;;;;;;8.77;4.00;;;;;;;;;;4843510;29;20397;-78
2023/09/27 05:19:11;;;;;;;8.65;3.80;;;;;;;;;;4843906;29;20052;-77
2023/09/27 05:21:42;;;;;;;6.95;3.47;;;;;;;;;;4843175;29;20157;-76
2023/09/27 05:24:15;;;;;;;10.18;3.90;;;;;;;;;;4843244;29;20408;-77
2023/09/27 05:26:45;;;;;;;11.57;3.63;;;;;;;;;;4843502;29;20417;-78
2023/09/27 05:29:16;;;;;;;7.25;3.47;;;;;;;;;;4827375;29;20057;-78
2023/09/27 05:31:51;;;;;;;7.13;3.65;;;;;;;;;;4842889;29;20057;-78
2023/09/27 05:34:24;;;;;;;8.57;4.03;;;;;;;;;;4843685;29;20493;-77
2023/09/27 05:36:54;;;;;;;6.47;3.40;;;;;;;;;;4826963;29;20506;-77
2023/09/27 05:39:26;;;;;;;11.63;3.08;;;;;;;;;;4826948;29;20493;-77
2023/09/27 05:42:02;;;;;;;6.63;3.25;;;;;;;;;;4843082;29;20054;-78
2023/09/27 05:44:35;;;;;;;8.27;3.42;;;;;;;;;;4826326;29;20050;-77
2023/09/27 05:47:05;;;;;;;10.10;3.28;;;;;;;;;;4843163;29;20057;-79
2023/09/27 05:49:36;;;;;;;6.85;2.80;;;;;;;;;;4842904;29;20518;-78
2023/09/27 05:52:11;;;;;;;7.95;3.45;;;;;;;;;;4842585;29;20050;-77
2023/09/27 05:54:44;;;;;;;8.10;2.97;;;;;;;;;;4842891;29;20073;-79
2023/09/27 05:57:16;;;;;;;6.07;2.65;;;;;;;;;;4842911;29;20057;-79
2023/09/27 05:59:47;;;;;;;5.00;2.35;;;;;;;;;;4843096;29;20046;-79
2023/09/27 06:02:19;;;;;;;8.05;2.75;;;;;;;;;;4842858;29;20050;-80
2023/09/27 06:04:51;;;;;;;6.93;2.60;;;;;;;;;;4842929;29;20058;-77
2023/09/27 06:07:22;;;;;;;6.32;2.80;;;;;;;;;;4843353;29;20509;-79
2023/09/27 06:09:53;;;;;;;6.85;2.30;;;;;;;;;;4842702;29;20046;-80
2023/09/27 06:12:25;;;;;;;4.65;2.25;;;;;;;;;;4826546;29;20050;-78
2023/09/27 06:14:57;;;;;;;8.43;2.72;;;;;;;;;;4842739;29;20478;-78
2023/09/27 06:17:28;;;;;;;5.05;2.33;;;;;;;;;;4826996;29;20045;-78
2023/09/27 06:20:05;;;;;;;3.50;1.63;;;;;;;;;;4842603;29;20512;-78
2023/09/27 06:22:37;;;;;;;4.40;1.50;;;;;;;;;;4842951;29;20041;-80
2023/09/27 06:25:12;;;;;;;3.78;1.75;;;;;;;;;;4843241;29;20073;-79
2023/09/27 06:27:45;;;;;;;3.97;1.63;;;;;;;;;;4842258;29;20042;-79
2023/09/27 06:30:20;;;;;;;3.50;1.20;;;;;;;;;;4842200;29;20442;-77
2023/09/27 06:32:55;;;;;;;6.18;1.55;;;;;;;;;;4841655;29;20050;-78
2023/09/27 06:35:31;;;;;;;3.72;1.50;;;;;;;;;;4842131;29;20042;-77
2023/09/27 06:38:02;;;;;;;3.22;1.48;;;;;;;;;;4842485;29;20470;-78
2023/09/27 06:40:35;;;;;;;4.32;1.70;;;;;;;;;;4856203;29;20477;-79
2023/09/27 06:43:09;;;;;;;2.95;1.40;;;;;;;;;;4842117;29;20053;-77
2023/09/27 06:45:45;;;;;;;3.70;1.38;;;;;;;;;;4842584;29;20061;-78
2023/09/27 06:48:18;;;;;;;3.90;1.33;;;;;;;;;;4842732;29;20046;-79
2023/09/27 06:50:49;;;;;;;4.85;1.42;;;;;;;;;;4842324;29;20054;-79
2023/09/27 06:53:21;;;;;;;5.07;1.52;;;;;;;;;;4842282;29;20058;-80
2023/09/27 06:56:02;;;;;;;3.10;1.25;;;;;;;;;;4842824;29;20053;-81
2023/09/27 06:58:35;;;;;;;4.43;1.33;;;;;;;;;;4842574;29;20050;-81
2023/09/27 07:01:10;;;;;;;9.60;1.33;;;;;;;;;;4842211;29;20076;-81
2023/09/27 07:03:42;;;;;;;6.97;1.85;;;;;;;;;;4825709;29;20415;-81
2023/09/27 07:06:17;;;;;;;3.83;1.25;;;;;;;;;;4842571;29;20084;-80
2023/09/27 07:08:52;;;;;;;6.07;1.20;;;;;;;;;;4842589;29;20050;-80
2023/09/27 07:11:23;;;;;;;2.40;1.23;;;;;;;;;;4842202;29;20060;-79
2023/09/27 07:13:55;;;;;;;4.43;0.90;;;;;;;;;;4842630;29;20477;-79
2023/09/27 07:16:29;;;;;;;2.10;0.93;;;;;;;;;;4842544;29;20050;-79
2023/09/27 07:19:05;;;;;;;3.33;0.90;;;;;;;;;;4841840;29;20074;-79
2023/09/27 07:21:37;;;;;;;2.88;0.73;;;;;;;;;;4842561;29;20486;-80
2023/09/27 07:24:10;;;;;;;1.95;0.80;;;;;;;;;;4842258;29;20137;-78
2023/09/27 07:26:46;;;;;;;2.75;0.95;;;;;;;;;;4842220;29;20057;-79
2023/09/27 07:29:16;;;;;;;2.45;0.70;;;;;;;;;;4842158;29;20068;-78
2023/09/27 07:31:47;;;;;;;2.78;0.60;;;;;;;;;;4856088;29;20050;-80
2023/09/27 07:34:18;;;;;;;2.83;0.90;;;;;;;;;;4842084;29;20046;-79
2023/09/27 07:36:49;;;;;;;3.97;0.63;;;;;;;;;;4842342;29;20050;-79
2023/09/27 07:39:20;;;;;;;2.25;1.10;;;;;;;;;;4825111;29;20061;-77
2023/09/27 07:41:52;;;;;;;2.80;0.60;;;;;;;;;;4842586;29;20053;-79
2023/09/27 07:44:27;;;;;;;2.25;0.85;;;;;;;;;;4844602;29;20057;-79
2023/09/27 07:46:59;;;;;;;4.20;0.70;;;;;;;;;;4845258;29;20062;-79
2023/09/27 07:49:30;;;;;;;1.40;0.60;;;;;;;;;;4845920;29;20054;-78
2023/09/27 07:52:00;;;;;;;3.13;0.80;;;;;;;;;;4845217;29;20486;-80
2023/09/27 07:54:33;;;;;;;2.28;0.82;;;;;;;;;;4828438;29;20057;-82
2023/09/27 07:57:05;;;;;;;5.75;0.90;;;;;;;;;;4845112;29;20080;-78
2023/09/27 07:59:36;;;;;;;2.63;0.80;;;;;;;;;;4844826;29;20045;-78
2023/09/27 08:02:09;;;;;;;2.50;0.70;;;;;;;;;;4844812;29;20391;-79
2023/09/27 08:04:40;;;;;;;2.20;0.65;;;;;;;;;;4845571;29;20053;-80
2023/09/27 08:07:15;;;;;;;1.40;0.68;;;;;;;;;;4858465;29;20046;-79
2023/09/27 08:09:45;;;;;;;2.95;0.68;;;;;;;;;;4844788;29;20046;-80
2023/09/27 08:12:18;;;;;;;1.85;0.70;;;;;;;;;;4844788;29;20075;-79
2023/09/27 08:14:48;;;;;;;1.45;0.50;;;;;;;;;;4845456;29;20053;-79
2023/09/27 08:17:21;;;;;;;1.35;0.65;;;;;;;;;;4845073;29;20042;-79
2023/09/27 08:19:55;;;;;;;2.00;0.50;;;;;;;;;;4845302;29;20058;-81
2023/09/27 08:22:26;;;;;;;1.70;0.90;;;;;;;;;;4844561;29;20056;-80
2023/09/27 08:24:56;;;;;;;1.50;0.80;;;;;;;;;;4844557;29;20046;-81
2023/09/27 08:27:26;;;;;;;2.38;0.75;;;;;;;;;;4843580;29;20049;-79
2023/09/27 08:29:56;;;;;;;1.65;0.82;;;;;;;;;;4845484;29;20050;-80
2023/09/27 08:32:29;;;;;;;2.08;0.77;;;;;;;;;;4844558;29;20042;-80
2023/09/27 08:35:05;;;;;;;2.53;1.00;;;;;;;;;;4844464;29;20401;-81
2023/09/27 08:37:35;;;;;;;2.05;0.75;;;;;;;;;;4857852;29;20057;-79
2023/09/27 08:40:12;;;;;;;2.58;0.80;;;;;;;;;;4858000;29;20053;-81
2023/09/27 08:42:50;;;;;;;2.20;0.77;;;;;;;;;;4844291;29;20058;-81
2023/09/27 08:45:23;;;;;;;3.08;0.80;;;;;;;;;;4828228;29;20339;-81
2023/09/27 08:47:54;;;;;;;2.33;0.65;;;;;;;;;;4844359;29;20057;-78
2023/09/27 08:50:32;;;;;;;1.77;0.85;;;;;;;;;;4828017;29;20054;-78
2023/09/27 08:53:04;;;;;;;2.92;1.00;;;;;;;;;;4843978;29;20064;-78
2023/09/27 08:55:39;;;;;;;4.60;0.82;;;;;;;;;;4842901;29;20061;-79
2023/09/27 08:58:10;;;;;;;2.65;1.00;;;;;;;;;;4827518;29;20050;-78
2023/09/27 09:00:42;;;;;;;1.95;0.90;;;;;;;;;;4843335;29;20042;-77
2023/09/27 09:03:18;;;;;;;3.40;0.80;;;;;;;;;;4843643;29;20117;-79
2023/09/27 09:05:50;;;;;;;1.90;0.85;;;;;;;;;;4843907;29;20061;-79
2023/09/27 09:08:21;;;;;;;2.15;0.85;;;;;;;;;;4843711;29;20046;-79
2023/09/27 09:11:19;;;;;;;1.65;0.82;;;;;;;;;;4844730;29;20054;-80
2023/09/27 09:14:10;;;;;;;1.88;0.73;;;;;;;;;;4860550;29;20053;-81
2023/09/27 09:16:47;;;;;;;2.22;0.75;;;;;;;;;;4857350;29;20049;-80
2023/09/27 09:19:25;;;;;;;4.40;1.20;;;;;;;;;;4855110;29;20057;-78
2023/09/27 09:22:13;;;;;;;2.97;0.90;;;;;;;;;;4861594;29;20061;-80
2023/09/27 09:24:43;;;;;;;3.22;1.02;;;;;;;;;;4861954;29;20493;-79
2023/09/27 09:27:14;;;;;;;1.90;0.88;;;;;;;;;;4862126;29;20060;-81
2023/09/27 09:29:53;;;;;;;1.45;0.63;;;;;;;;;;4862090;29;20568;-79
2023/09/27 09:32:29;;;;;;;1.20;0.50;;;;;;;;;;4862186;29;20049;-78
2023/09/27 09:35:06;;;;;;;3.30;0.70;;;;;;;;;;4861037;29;20489;-79
2023/09/27 09:37:41;;;;;;;2.72;0.70;;;;;;;;;;4861535;29;20049;-78
2023/09/27 09:40:20;;;;;;;1.50;0.60;;;;;;;;;;4861018;29;20385;-79
2023/09/27 09:42:51;;;;;;;1.10;0.45;;;;;;;;;;4859998;29;20049;-80
2023/09/27 09:45:23;;;;;;;0.68;0.43;;;;;;;;;;4861914;29;20060;-78
2023/09/27 09:47:56;;;;;;;1.55;0.52;;;;;;;;;;4861440;29;20049;-79
2023/09/27 09:50:29;;;;;;;2.63;0.40;;;;;;;;;;4861706;29;20528;-79
2023/09/27 09:53:01;;;;;;;1.30;0.20;;;;;;;;;;4861573;29;20053;-80
2023/09/27 09:55:34;;;;;;;0.52;0.40;;;;;;;;;;4861306;29;20049;-80
2023/09/27 09:59:03;;;;;;;3.50;0.80;;;;;;;;;;4862023;29;20045;-77
2023/09/27 10:01:37;;;;;;;2.55;0.43;;;;;;;;;;4859069;29;20060;-78
2023/09/27 10:04:10;;;;;;;1.42;0.47;;;;;;;;;;4861140;29;20045;-78
2023/09/27 10:06:44;;;;;;;1.15;0.50;;;;;;;;;;4861040;29;20052;-78
2023/09/27 10:09:18;;;;;;;1.05;0.30;;;;;;;;;;4861400;29;20404;-78
2023/09/27 10:11:51;;;;;;;0.73;0.30;;;;;;;;;;4861836;29;20053;-79
2023/09/27 10:14:23;;;;;;;0.95;0.40;;;;;;;;;;4861472;29;20041;-77
2023/09/27 10:16:54;;;;;;;1.45;0.40;;;;;;;;;;4860799;29;20045;-79
2023/09/27 10:19:28;;;;;;;0.77;0.40;;;;;;;;;;4845226;29;20045;-77
2023/09/27 10:22:04;;;;;;;2.67;0.35;;;;;;;;;;4861560;29;20060;-76
2023/09/27 10:24:43;;;;;;;1.02;0.50;;;;;;;;;;4861072;29;20047;-78
2023/09/27 10:27:18;;;;;;;4.13;0.70;;;;;;;;;;4861140;29;20053;-78
2023/09/27 10:29:58;;;;;;;1.25;0.50;;;;;;;;;;4860853;29;20366;-80
2023/09/27 10:32:29;;;;;;;2.05;0.50;;;;;;;;;;4860326;29;20037;-81
2023/09/27 10:35:21;;;;;;;0.88;0.40;;;;;;;;;;4861148;29;20053;-79
2023/09/27 10:37:59;;;;;;;0.82;0.45;;;;;;;;;;4860837;29;20053;-79
2023/09/27 10:40:44;;;;;;;0.90;0.60;;;;;;;;;;4861455;29;20485;-77
2023/09/27 10:43:40;;;;;;;7.82;1.27;;;;;;;;;;4861295;29;20397;-77
2023/09/27 10:46:14;;;;;;;1.05;0.30;;;;;;;;;;4859180;29;20077;-81
2023/09/27 10:48:56;;;;;;;1.55;0.68;;;;;;;;;;4861490;29;20061;-77
2023/09/27 10:51:26;;;;;;;1.95;0.85;;;;;;;;;;4860248;29;20401;-77
2023/09/27 10:53:56;;;;;;;2.20;0.50;;;;;;;;;;4859237;29;20046;-79
2023/09/27 10:56:29;;;;;;;1.38;0.82;;;;;;;;;;4861097;29;20057;-79
2023/09/27 10:59:02;;;;;;;3.60;0.70;;;;;;;;;;4861092;29;20050;-77
2023/09/27 11:01:33;;;;;;;1.92;0.80;;;;;;;;;;4861903;29;20049;-79
2023/09/27 11:04:04;;;;;;;2.83;0.55;;;;;;;;;;4867652;29;20037;-81
2023/09/27 11:09:44;;;;;;;1.35;0.60;;;;;;;;;;4864673;29;20116;-81
2023/09/27 11:12:22;;;;;;;1.95;0.70;;;;;;;;;;4889767;29;20049;-80
2023/09/27 11:14:56;;;;;;;5.97;0.82;;;;;;;;;;4881242;29;20033;-80
2023/09/27 11:17:29;;;;;;;1.50;0.65;;;;;;;;;;4849524;29;20038;-79
2023/09/27 11:20:11;;;;;;;5.22;0.95;;;;;;;;;;4863847;29;20054;-80
2023/09/27 11:22:45;;;;;;;0.80;0.47;;;;;;;;;;4844747;29;20049;-80
2023/09/27 11:25:28;;;;;;;3.35;0.80;;;;;;;;;;4844554;29;20080;-79
2023/09/27 11:28:02;;;;;;;2.97;0.70;;;;;;;;;;4844466;29;20057;-81
2023/09/27 11:30:34;;;;;;;3.00;0.88;;;;;;;;;;4844578;29;20057;-80
2023/09/27 11:33:06;;;;;;;1.98;0.70;;;;;;;;;;4844324;29;20053;-81
2023/09/27 11:35:48;;;;;;;2.13;1.02;;;;;;;;;;4844352;29;20046;-78
2023/09/27 11:38:26;;;;;;;1.85;0.80;;;;;;;;;;4844396;29;20053;-80
2023/09/27 11:41:04;;;;;;;2.28;0.70;;;;;;;;;;4855491;29;20061;-81
2023/09/27 11:43:35;;;;;;;0.80;0.38;;;;;;;;;;4843361;29;20068;-82
2023/09/27 11:46:06;;;;;;;2.60;0.98;;;;;;;;;;4846390;29;20068;-79
2023/09/27 11:48:39;;;;;;;1.80;0.80;;;;;;;;;;4859572;29;20053;-80
2023/09/27 11:51:11;;;;;;;;;;;;;;;;;;4851470;29;20046;-79
2023/09/27 11:53:45;;;;;;;1.83;0.90;;;;;;;;;;4859826;29;19927;-82
2023/09/27 11:56:16;;;;;;;1.70;0.60;;;;;;;;;;4860794;29;20053;-80
2023/09/27 11:58:50;;;;;;;6.20;1.20;;;;;;;;;;4858265;29;20049;-80
2023/09/27 12:01:21;;;;;;;5.25;1.00;;;;;;;;;;4857997;29;20045;-82
2023/09/27 12:03:52;;;;;;;3.90;0.93;;;;;;;;;;4862103;29;20053;-81
2023/09/27 12:06:25;;;;;;;2.20;0.80;;;;;;;;;;4862127;29;20150;-80
2023/09/27 12:09:05;;;;;;;2.85;0.95;;;;;;;;;;4861522;29;20536;-81
2023/09/27 12:11:36;;;;;;;1.50;0.65;;;;;;;;;;4859490;29;20058;-78
2023/09/27 12:14:07;;;;;;;2.72;0.63;;;;;;;;;;4825838;29;20050;-77
2023/09/27 12:16:37;;;;;;;2.67;0.63;;;;;;;;;;4847484;29;20049;-77
2023/09/27 12:19:11;;;;;;;1.05;0.50;;;;;;;;;;4843559;29;20066;-77
2023/09/27 12:21:41;;;;;;;0.95;0.55;;;;;;;;;;4843602;29;20054;-78
2023/09/27 12:24:12;;;;;;;3.63;0.90;;;;;;;;;;4852838;29;20065;-77
2023/09/27 12:26:43;;;;;;;2.05;0.70;;;;;;;;;;4857183;29;20041;-78
2023/09/27 12:29:14;;;;;;;3.08;0.63;;;;;;;;;;4843736;29;20492;-77
2023/09/27 12:31:46;;;;;;;4.20;0.55;;;;;;;;;;4860838;29;20045;-77
2023/09/27 12:34:19;;;;;;;1.60;0.80;;;;;;;;;;4824237;29;20053;-80
2023/09/27 12:36:52;;;;;;;0.68;0.50;;;;;;;;;;4860633;29;20049;-77
2023/09/27 12:39:24;;;;;;;2.38;0.43;;;;;;;;;;4845093;29;20057;-77
2023/09/27 12:41:58;;;;;;;3.55;0.63;;;;;;;;;;4860705;29;20046;-77
2023/09/27 12:44:29;;;;;;;1.58;0.55;;;;;;;;;;4861055;29;20046;-76
2023/09/27 12:46:59;;;;;;;1.15;0.40;;;;;;;;;;4861288;29;20041;-78
2023/09/27 12:49:30;;;;;;;0.85;0.43;;;;;;;;;;4861356;29;20109;-79
2023/09/27 12:52:01;;;;;;;2.03;0.60;;;;;;;;;;4843581;29;20041;-79
2023/09/27 12:54:32;;;;;;;1.08;0.52;;;;;;;;;;4842861;29;20050;-78
2023/09/27 12:57:02;;;;;;;1.65;0.73;;;;;;;;;;4842827;29;20150;-79
2023/09/27 12:59:38;;;;;;;3.90;0.60;;;;;;;;;;4842686;29;20057;-81
2023/09/27 13:02:09;;;;;;;1.00;0.55;;;;;;;;;;4842720;29;20061;-79
2023/09/27 13:04:44;;;;;;;0.88;0.50;;;;;;;;;;4854073;29;20048;-78
2023/09/27 13:07:14;;;;;;;1.60;0.73;;;;;;;;;;4846705;29;20053;-78
2023/09/27 13:09:49;;;;;;;0.75;0.50;;;;;;;;;;4835733;29;20513;-80
2023/09/27 13:12:22;;;;;;;2.40;0.80;;;;;;;;;;4847727;29;20520;-79
2023/09/27 13:14:56;;;;;;;1.58;0.93;;;;;;;;;;4860734;29;20386;-81
2023/09/27 13:17:26;;;;;;;1.02;0.63;;;;;;;;;;4859675;29;20060;-79
2023/09/27 13:19:58;;;;;;;0.82;0.60;;;;;;;;;;4858290;29;20080;-79
2023/09/27 13:22:29;;;;;;;2.78;0.95;;;;;;;;;;4842823;29;20046;-79
2023/09/27 13:24:59;;;;;;;4.35;0.50;;;;;;;;;;4843330;29;20050;-79
2023/09/27 13:27:31;;;;;;;3.72;0.85;;;;;;;;;;4843194;29;20501;-79
2023/09/27 13:30:03;;;;;;;2.67;0.40;;;;;;;;;;4848971;29;20061;-80
2023/09/27 13:32:35;;;;;;;1.45;0.82;;;;;;;;;;4860560;29;20500;-78
2023/09/27 13:35:07;;;;;;;0.98;0.57;;;;;;;;;;4845060;29;20058;-81
2023/09/27 13:37:37;;;;;;;2.67;0.52;;;;;;;;;;4860647;29;20053;-78
2023/09/27 13:40:12;;;;;;;1.58;0.50;;;;;;;;;;4860922;29;20156;-81
2023/09/27 13:42:44;;;;;;;2.13;0.40;;;;;;;;;;4844412;29;20049;-79
2023/09/27 13:45:15;;;;;;;1.95;0.60;;;;;;;;;;4860602;29;20056;-80
2023/09/27 13:47:46;;;;;;;2.38;0.73;;;;;;;;;;4859568;29;20516;-78
2023/09/27 13:50:18;;;;;;;1.02;0.60;;;;;;;;;;4858267;29;20062;-78
2023/09/27 13:52:50;;;;;;;2.08;0.60;;;;;;;;;;4861066;29;20211;-78
2023/09/27 13:55:21;;;;;;;0.88;0.55;;;;;;;;;;4859839;29;20064;-78
2023/09/27 13:57:52;;;;;;;1.50;0.80;;;;;;;;;;4860992;29;20060;-77
2023/09/27 14:00:23;;;;;;;1.77;0.40;;;;;;;;;;4860342;29;20054;-79
2023/09/27 14:02:54;;;;;;;1.20;0.50;;;;;;;;;;4860310;29;20053;-78
2023/09/27 14:05:24;;;;;;;1.20;0.50;;;;;;;;;;4860210;29;20053;-79
2023/09/27 14:07:55;;;;;;;1.85;0.68;;;;;;;;;;4843971;29;20050;-78
2023/09/27 14:10:26;;;;;;;1.35;1.25;;;;;;;;;;4859651;29;20516;-81
2023/09/27 14:12:59;;;;;;;2.13;0.43;;;;;;;;;;4859935;29;20061;-78
2023/09/27 14:15:31;;;;;;;1.15;0.30;;;;;;;;;;4859850;29;20045;-78
2023/09/27 14:18:01;;;;;;;3.70;0.70;;;;;;;;;;4860590;29;20488;-81
2023/09/27 14:20:32;;;;;;;1.02;0.52;;;;;;;;;;4853109;29;20097;-77
2023/09/27 14:23:04;;;;;;;1.92;0.65;;;;;;;;;;4841968;29;20058;-79
2023/09/27 14:25:45;;;;;;;1.30;0.50;;;;;;;;;;4855763;29;20485;-79
2023/09/27 14:28:15;;;;;;;0.68;0.45;;;;;;;;;;4842913;29;20046;-77
2023/09/27 14:30:47;;;;;;;2.08;0.70;;;;;;;;;;4843007;29;20038;-78
2023/09/27 14:33:20;;;;;;;0.50;0.32;;;;;;;;;;4842894;29;20357;-80
2023/09/27 14:35:51;;;;;;;1.45;0.60;;;;;;;;;;4842851;29;20066;-78
2023/09/27 14:38:21;;;;;;;2.25;0.50;;;;;;;;;;4842083;29;20049;-76
2023/09/27 14:40:52;;;;;;;2.95;0.52;;;;;;;;;;4825207;29;20050;-78
2023/09/27 14:43:52;;;;;;;2.28;0.50;;;;;;;;;;4824663;29;20394;-77
2023/09/27 14:46:24;;;;;;;1.42;0.70;;;;;;;;;;4874079;29;20053;-78
2023/09/27 14:48:54;;;;;;;2.55;0.50;;;;;;;;;;4861721;29;20061;-77
2023/09/27 14:51:26;;;;;;;1.48;0.52;;;;;;;;;;4854635;29;20052;-77
2023/09/27 14:53:57;;;;;;;2.88;0.65;;;;;;;;;;4861513;29;20046;-77
2023/09/27 14:56:27;;;;;;;3.45;0.80;;;;;;;;;;4846861;29;20077;-77
2023/09/27 14:59:03;;;;;;;2.30;0.60;;;;;;;;;;4863533;29;20050;-77
2023/09/27 15:01:36;;;;;;;2.40;0.63;;;;;;;;;;4862725;29;20046;-77
2023/09/27 15:04:08;;;;;;;0.90;0.50;;;;;;;;;;4863607;29;20409;-75
2023/09/27 15:06:42;;;;;;;4.05;0.70;;;;;;;;;;4862827;29;20058;-77
2023/09/27 15:09:12;;;;;;;0.95;0.50;;;;;;;;;;4846287;29;20054;-76
2023/09/27 15:11:45;;;;;;;1.33;0.75;;;;;;;;;;4862201;29;20053;-76
2023/09/27 15:14:18;;;;;;;3.03;0.82;;;;;;;;;;4862382;29;20052;-78
2023/09/27 15:16:52;;;;;;;1.13;0.50;;;;;;;;;;4863004;29;20520;-77
2023/09/27 15:19:22;;;;;;;0.82;0.50;;;;;;;;;;4862249;29;20049;-77
2023/09/27 15:21:55;;;;;;;1.05;0.52;;;;;;;;;;4855677;29;20052;-77